Time;durP1;ratioP1;P1;durP2;ratioP2;P2;SDS_P1;SDS_P2;PMS_P1;PMS_P2;Temp;Humidity;BMP_temperature;BMP_pressure;BME280_temperature;BME280_humidity;BME280_pressure;Samples;Min_cycle;Max_cycle;Signal;HPM_P1;HPM_P2
2020/12/01 00:01:15;;;;;;;49.13;16.23;;;;;;;;;;5066824;28;20082;-65
2020/12/01 00:03:40;;;;;;;32.78;13.15;;;;;;;;;;5075912;28;20361;-64
2020/12/01 00:06:06;;;;;;;32.95;12.50;;;;;;;;;;5077212;28;20444;-64
2020/12/01 00:08:32;;;;;;;59.03;16.42;;;;;;;;;;5068317;28;20028;-64
2020/12/01 00:10:57;;;;;;;54.17;19.30;;;;;;;;;;5074073;28;20024;-65
2020/12/01 00:13:22;;;;;;;54.03;18.30;;;;;;;;;;5072951;28;20469;-65
2020/12/01 00:15:47;;;;;;;75.28;26.55;;;;;;;;;;5073520;28;20267;-64
2020/12/01 00:18:13;;;;;;;75.43;27.67;;;;;;;;;;5072361;28;20477;-65
2020/12/01 00:20:38;;;;;;;76.90;26.90;;;;;;;;;;5076818;28;20271;-65
2020/12/01 00:23:03;;;;;;;52.60;17.90;;;;;;;;;;5078886;28;20318;-66
2020/12/01 00:25:28;;;;;;;28.53;11.73;;;;;;;;;;5075038;28;20016;-65
2020/12/01 00:27:53;;;;;;;36.13;11.48;;;;;;;;;;5074540;28;20255;-65
2020/12/01 00:30:21;;;;;;;27.27;11.20;;;;;;;;;;5074090;28;20025;-64
2020/12/01 00:32:46;;;;;;;28.38;14.07;;;;;;;;;;5069389;28;20302;-65
2020/12/01 00:35:14;;;;;;;34.42;13.10;;;;;;;;;;5072412;28;20440;-65
2020/12/01 00:37:39;;;;;;;20.60;9.63;;;;;;;;;;5072892;28;20120;-65
2020/12/01 00:40:05;;;;;;;40.40;16.05;;;;;;;;;;5075831;28;20139;-65
2020/12/01 00:42:30;;;;;;;43.55;16.83;;;;;;;;;;5074079;28;20025;-65
2020/12/01 00:44:56;;;;;;;43.42;16.63;;;;;;;;;;5074659;28;20043;-65
2020/12/01 00:47:21;;;;;;;32.10;13.13;;;;;;;;;;5071651;28;20013;-64
2020/12/01 00:49:46;;;;;;;44.13;17.10;;;;;;;;;;5070911;28;20362;-65
2020/12/01 00:52:11;;;;;;;29.83;10.70;;;;;;;;;;5073870;28;20117;-65
2020/12/01 00:54:36;;;;;;;30.00;11.60;;;;;;;;;;5072221;28;20743;-64
2020/12/01 00:57:01;;;;;;;22.73;11.93;;;;;;;;;;5074625;28;20048;-65
2020/12/01 00:59:27;;;;;;;24.42;12.23;;;;;;;;;;5071381;28;20020;-65
2020/12/01 01:01:52;;;;;;;23.73;9.53;;;;;;;;;;5070014;28;20043;-65
2020/12/01 01:04:17;;;;;;;21.73;9.02;;;;;;;;;;5073345;28;20281;-65
2020/12/01 01:06:46;;;;;;;19.77;9.60;;;;;;;;;;5074205;28;20047;-64
2020/12/01 01:09:11;;;;;;;44.95;12.80;;;;;;;;;;5073771;28;20154;-64
2020/12/01 01:11:36;;;;;;;25.03;9.73;;;;;;;;;;5088650;28;20119;-64
2020/12/01 01:14:01;;;;;;;33.22;12.55;;;;;;;;;;5075436;28;20266;-64
2020/12/01 01:16:27;;;;;;;14.15;7.28;;;;;;;;;;5074759;28;20032;-64
2020/12/01 01:18:52;;;;;;;18.50;8.48;;;;;;;;;;5073078;28;20053;-65
2020/12/01 01:21:17;;;;;;;22.98;11.23;;;;;;;;;;5071632;28;20020;-64
2020/12/01 01:23:43;;;;;;;25.80;9.00;;;;;;;;;;5072060;28;20067;-65
2020/12/01 01:26:08;;;;;;;19.30;8.32;;;;;;;;;;5071731;28;20513;-64
2020/12/01 01:28:33;;;;;;;20.35;7.30;;;;;;;;;;5071106;28;20029;-64
2020/12/01 01:30:58;;;;;;;28.33;11.30;;;;;;;;;;5070632;28;20025;-65
2020/12/01 01:33:24;;;;;;;38.13;15.52;;;;;;;;;;5070937;28;20028;-65
2020/12/01 01:35:49;;;;;;;22.58;9.57;;;;;;;;;;5070781;28;20063;-65
2020/12/01 01:38:14;;;;;;;18.90;8.10;;;;;;;;;;5069812;28;20027;-64
2020/12/01 01:40:39;;;;;;;18.45;7.75;;;;;;;;;;5071992;28;20259;-65
2020/12/01 01:43:04;;;;;;;23.98;9.25;;;;;;;;;;5071471;28;20020;-65
2020/12/01 01:45:37;;;;;;;20.77;8.73;;;;;;;;;;5071009;28;20397;-65
2020/12/01 01:48:03;;;;;;;20.95;9.15;;;;;;;;;;5072787;28;20024;-64
2020/12/01 01:50:29;;;;;;;28.95;11.02;;;;;;;;;;5073537;28;20024;-64
2020/12/01 01:52:55;;;;;;;31.20;12.18;;;;;;;;;;5071252;28;20017;-64
2020/12/01 01:55:22;;;;;;;18.63;8.27;;;;;;;;;;5070813;28;20035;-64
2020/12/01 01:57:51;;;;;;;29.83;12.73;;;;;;;;;;5070501;28;20024;-64
2020/12/01 02:00:35;;;;;;;27.13;10.68;;;;;;;;;;5070517;28;20019;-64
2020/12/01 02:03:01;;;;;;;27.30;12.25;;;;;;;;;;5073624;28;20056;-64
2020/12/01 02:05:26;;;;;;;29.13;12.93;;;;;;;;;;5066028;28;20048;-64
2020/12/01 02:07:51;;;;;;;19.60;8.20;;;;;;;;;;5070534;28;20032;-65
2020/12/01 02:10:16;;;;;;;27.65;12.32;;;;;;;;;;5072331;28;20328;-65
2020/12/01 02:12:43;;;;;;;27.08;11.32;;;;;;;;;;5075574;28;20033;-65
2020/12/01 02:15:09;;;;;;;26.20;11.40;;;;;;;;;;5070771;28;20484;-64
2020/12/01 02:17:36;;;;;;;26.75;10.95;;;;;;;;;;5075329;28;20032;-64
2020/12/01 02:20:07;;;;;;;18.02;8.32;;;;;;;;;;5071541;28;20027;-64
2020/12/01 02:22:33;;;;;;;27.92;10.88;;;;;;;;;;5064592;28;20056;-64
2020/12/01 02:24:58;;;;;;;24.00;10.57;;;;;;;;;;5073060;28;20113;-64
2020/12/01 02:27:24;;;;;;;31.40;12.75;;;;;;;;;;5071274;28;20028;-64
2020/12/01 02:29:51;;;;;;;27.35;12.15;;;;;;;;;;5066963;28;20025;-65
2020/12/01 02:32:17;;;;;;;27.10;12.00;;;;;;;;;;5070659;28;20050;-64
2020/12/01 02:34:44;;;;;;;27.98;11.45;;;;;;;;;;5074943;28;20021;-65
2020/12/01 02:37:11;;;;;;;25.17;9.43;;;;;;;;;;5065917;28;20095;-65
2020/12/01 02:39:36;;;;;;;20.25;8.65;;;;;;;;;;5069954;28;20505;-65
2020/12/01 02:42:03;;;;;;;20.77;8.35;;;;;;;;;;5071503;28;20266;-65
2020/12/01 02:44:28;;;;;;;23.55;10.93;;;;;;;;;;5069585;28;20032;-65
2020/12/01 02:46:55;;;;;;;15.82;7.95;;;;;;;;;;5071155;28;20332;-65
2020/12/01 02:49:21;;;;;;;25.35;10.18;;;;;;;;;;5069670;28;20055;-65
2020/12/01 02:51:46;;;;;;;31.92;14.80;;;;;;;;;;5068405;28;20149;-65
2020/12/01 02:54:12;;;;;;;37.43;16.20;;;;;;;;;;5071025;28;20038;-64
2020/12/01 02:56:37;;;;;;;35.85;14.50;;;;;;;;;;5069844;28;20305;-64
2020/12/01 02:59:03;;;;;;;27.17;12.23;;;;;;;;;;5068583;28;20465;-65
2020/12/01 03:01:28;;;;;;;22.90;8.82;;;;;;;;;;5069162;28;20107;-64
2020/12/01 03:03:53;;;;;;;32.13;12.77;;;;;;;;;;5069868;28;20141;-64
2020/12/01 03:06:19;;;;;;;25.10;11.13;;;;;;;;;;5072663;28;20271;-65
2020/12/01 03:08:44;;;;;;;26.15;10.85;;;;;;;;;;5068148;28;20131;-64
2020/12/01 03:11:11;;;;;;;28.08;11.32;;;;;;;;;;5068318;28;20068;-64
2020/12/01 03:13:36;;;;;;;23.67;11.52;;;;;;;;;;5073096;28;20074;-65
2020/12/01 03:16:07;;;;;;;26.55;12.23;;;;;;;;;;5070962;28;20048;-64
2020/12/01 03:18:32;;;;;;;27.95;11.10;;;;;;;;;;5068993;28;20029;-64
2020/12/01 03:20:57;;;;;;;15.95;7.35;;;;;;;;;;5073717;28;20031;-65
2020/12/01 03:23:22;;;;;;;15.73;8.00;;;;;;;;;;5071236;28;20392;-64
2020/12/01 03:25:48;;;;;;;17.50;9.20;;;;;;;;;;5069685;28;20016;-65
2020/12/01 03:28:13;;;;;;;17.60;7.45;;;;;;;;;;5068654;28;20056;-64
2020/12/01 03:30:38;;;;;;;14.77;5.85;;;;;;;;;;5070052;28;20099;-65
2020/12/01 03:33:03;;;;;;;13.75;6.50;;;;;;;;;;5071818;28;20485;-64
2020/12/01 03:35:29;;;;;;;14.23;6.95;;;;;;;;;;5070950;28;20025;-64
2020/12/01 03:37:54;;;;;;;12.70;7.03;;;;;;;;;;5071148;28;20426;-64
2020/12/01 03:40:19;;;;;;;17.67;6.07;;;;;;;;;;5072906;28;20058;-64
2020/12/01 03:42:45;;;;;;;12.73;7.00;;;;;;;;;;5073462;28;20028;-65
2020/12/01 03:45:10;;;;;;;10.40;4.88;;;;;;;;;;5068746;28;20394;-64
2020/12/01 03:47:35;;;;;;;11.13;4.83;;;;;;;;;;5072291;28;20020;-65
2020/12/01 03:50:00;;;;;;;31.23;12.63;;;;;;;;;;5070179;28;20642;-64
2020/12/01 03:52:25;;;;;;;23.17;10.05;;;;;;;;;;5072960;28;20269;-64
2020/12/01 03:54:50;;;;;;;25.85;10.23;;;;;;;;;;5074348;28;20484;-64
2020/12/01 03:57:16;;;;;;;25.20;10.60;;;;;;;;;;5066566;28;20148;-64
2020/12/01 03:59:41;;;;;;;32.10;12.25;;;;;;;;;;5069392;28;20293;-65
2020/12/01 04:02:06;;;;;;;14.90;7.67;;;;;;;;;;5066882;28;20107;-65
2020/12/01 04:04:31;;;;;;;35.28;13.90;;;;;;;;;;5068225;28;20266;-64
2020/12/01 04:06:57;;;;;;;26.77;10.77;;;;;;;;;;5062911;28;20115;-64
2020/12/01 04:09:23;;;;;;;10.27;5.00;;;;;;;;;;5067008;28;20028;-64
2020/12/01 04:11:48;;;;;;;19.35;9.15;;;;;;;;;;5074409;28;20027;-64
2020/12/01 04:14:13;;;;;;;28.30;12.02;;;;;;;;;;5073436;28;20040;-64
2020/12/01 04:16:38;;;;;;;11.10;4.87;;;;;;;;;;5076966;28;20020;-64
2020/12/01 04:19:03;;;;;;;31.57;12.83;;;;;;;;;;5072937;28;20295;-64
2020/12/01 04:21:29;;;;;;;29.77;11.93;;;;;;;;;;5071686;28;20830;-64
2020/12/01 04:23:54;;;;;;;32.13;13.63;;;;;;;;;;5073380;28;20110;-64
2020/12/01 04:26:20;;;;;;;39.47;15.05;;;;;;;;;;5071480;28;20043;-64
2020/12/01 04:28:45;;;;;;;32.47;13.23;;;;;;;;;;5072137;28;20024;-65
2020/12/01 04:31:11;;;;;;;31.35;14.48;;;;;;;;;;5067618;28;20123;-64
2020/12/01 04:33:36;;;;;;;26.05;11.50;;;;;;;;;;5071134;28;20024;-65
2020/12/01 04:36:01;;;;;;;29.83;13.10;;;;;;;;;;5073410;28;20028;-65
2020/12/01 04:38:26;;;;;;;22.30;8.50;;;;;;;;;;5073610;28;20282;-65
2020/12/01 04:40:51;;;;;;;22.27;9.33;;;;;;;;;;5072508;28;20025;-64
2020/12/01 04:43:25;;;;;;;26.92;12.38;;;;;;;;;;5071614;28;20349;-64
2020/12/01 04:45:51;;;;;;;30.30;13.95;;;;;;;;;;5070441;28;20024;-65
2020/12/01 04:48:24;;;;;;;31.30;11.27;;;;;;;;;;5071703;28;20021;-64
2020/12/01 04:50:52;;;;;;;27.25;12.65;;;;;;;;;;5073035;28;20056;-63
2020/12/01 04:53:36;;;;;;;27.35;11.20;;;;;;;;;;5072359;28;20031;-64
2020/12/01 04:56:21;;;;;;;29.60;13.65;;;;;;;;;;5069444;28;20543;-64
2020/12/01 04:59:03;;;;;;;29.98;12.73;;;;;;;;;;5047906;28;20039;-64
2020/12/01 05:01:40;;;;;;;32.45;13.57;;;;;;;;;;5070640;28;20664;-65
2020/12/01 05:04:27;;;;;;;30.85;13.88;;;;;;;;;;5070420;28;20016;-63
2020/12/01 05:07:17;;;;;;;38.03;13.48;;;;;;;;;;5074547;28;20374;-64
2020/12/01 05:09:51;;;;;;;28.38;11.80;;;;;;;;;;5072080;28;20039;-65
2020/12/01 05:12:31;;;;;;;30.63;12.27;;;;;;;;;;5075016;28;20104;-64
2020/12/01 05:14:59;;;;;;;29.00;12.20;;;;;;;;;;5068356;28;20017;-65
2020/12/01 05:17:43;;;;;;;30.52;12.50;;;;;;;;;;5068914;28;20016;-64
2020/12/01 05:20:08;;;;;;;32.15;13.02;;;;;;;;;;5074106;28;20023;-63
2020/12/01 05:22:33;;;;;;;28.83;12.25;;;;;;;;;;5073500;28;20024;-65
2020/12/01 05:24:59;;;;;;;43.53;15.27;;;;;;;;;;5072850;28;20099;-64
2020/12/01 05:27:24;;;;;;;39.25;16.92;;;;;;;;;;5075196;28;20016;-65
2020/12/01 05:29:53;;;;;;;38.85;16.23;;;;;;;;;;5071322;28;20052;-65
2020/12/01 05:32:30;;;;;;;33.53;16.33;;;;;;;;;;5069890;28;20032;-64
2020/12/01 05:35:05;;;;;;;32.20;14.88;;;;;;;;;;5071417;28;20027;-65
2020/12/01 05:37:30;;;;;;;39.63;15.93;;;;;;;;;;5070736;28;20025;-64
2020/12/01 05:39:55;;;;;;;36.57;16.23;;;;;;;;;;5070956;28;20382;-65
2020/12/01 05:42:21;;;;;;;37.23;15.97;;;;;;;;;;5070914;28;20270;-64
2020/12/01 05:44:57;;;;;;;39.75;16.92;;;;;;;;;;5073386;28;20780;-65
2020/12/01 05:47:26;;;;;;;48.30;18.75;;;;;;;;;;5072954;28;20070;-65
2020/12/01 05:50:03;;;;;;;43.72;17.33;;;;;;;;;;5069820;28;20092;-65
2020/12/01 05:52:30;;;;;;;35.83;15.60;;;;;;;;;;5069406;28;20025;-65
2020/12/01 05:55:11;;;;;;;37.67;16.55;;;;;;;;;;5074605;28;20012;-65
2020/12/01 05:57:36;;;;;;;48.20;18.95;;;;;;;;;;5071259;28;20106;-65
2020/12/01 06:00:06;;;;;;;42.25;18.50;;;;;;;;;;5075609;28;20474;-64
2020/12/01 06:02:43;;;;;;;50.03;19.52;;;;;;;;;;5079678;28;20031;-64
2020/12/01 06:05:10;;;;;;;44.38;18.60;;;;;;;;;;5066566;28;20028;-65
2020/12/01 06:07:35;;;;;;;46.90;18.73;;;;;;;;;;5070566;28;20023;-65
2020/12/01 06:10:03;;;;;;;45.13;19.00;;;;;;;;;;5070881;28;20025;-63
2020/12/01 06:12:31;;;;;;;45.05;18.30;;;;;;;;;;5072042;28;20016;-63
2020/12/01 06:15:01;;;;;;;47.08;18.27;;;;;;;;;;5072094;28;20016;-64
2020/12/01 06:17:26;;;;;;;44.50;16.73;;;;;;;;;;5070139;28;20024;-64
2020/12/01 06:19:57;;;;;;;45.47;17.40;;;;;;;;;;5071879;28;20016;-67
2020/12/01 06:22:35;;;;;;;44.85;18.00;;;;;;;;;;5068993;28;20349;-65
2020/12/01 06:25:00;;;;;;;46.17;18.63;;;;;;;;;;5068887;28;20133;-64
2020/12/01 06:27:40;;;;;;;44.40;18.73;;;;;;;;;;5070649;28;20107;-65
2020/12/01 06:30:18;;;;;;;54.30;19.42;;;;;;;;;;5067334;28;20016;-65
2020/12/01 06:32:46;;;;;;;52.55;18.85;;;;;;;;;;5064634;28;20085;-65
2020/12/01 06:35:23;;;;;;;49.97;19.90;;;;;;;;;;5070222;28;20031;-64
2020/12/01 06:38:00;;;;;;;44.70;17.67;;;;;;;;;;5069739;28;20073;-65
2020/12/01 06:40:33;;;;;;;47.85;20.00;;;;;;;;;;5069134;28;20023;-65
2020/12/01 06:43:01;;;;;;;51.05;18.80;;;;;;;;;;5064517;28;20067;-65
2020/12/01 06:45:35;;;;;;;49.30;20.10;;;;;;;;;;5073697;28;20103;-65
2020/12/01 06:48:04;;;;;;;53.67;20.75;;;;;;;;;;5069977;28;20025;-65
2020/12/01 06:50:30;;;;;;;53.40;20.38;;;;;;;;;;5069764;28;20028;-64
2020/12/01 06:52:59;;;;;;;51.88;20.45;;;;;;;;;;5068972;28;20024;-65
2020/12/01 06:55:43;;;;;;;43.85;19.00;;;;;;;;;;5068950;28;20031;-64
2020/12/01 06:58:15;;;;;;;51.97;19.63;;;;;;;;;;5074581;28;20472;-64
2020/12/01 07:00:40;;;;;;;44.67;18.40;;;;;;;;;;5065251;28;20035;-65
2020/12/01 07:03:09;;;;;;;50.50;20.33;;;;;;;;;;5063185;28;20020;-65
2020/12/01 07:05:35;;;;;;;52.03;21.63;;;;;;;;;;5070265;28;20084;-65
2020/12/01 07:08:11;;;;;;;51.97;20.75;;;;;;;;;;5066808;28;20040;-64
2020/12/01 07:10:36;;;;;;;46.78;19.83;;;;;;;;;;5069008;28;20103;-65
2020/12/01 07:13:20;;;;;;;48.25;19.02;;;;;;;;;;5066571;28;20099;-65
2020/12/01 07:15:47;;;;;;;36.78;14.20;;;;;;;;;;5067273;28;20428;-63
2020/12/01 07:18:22;;;;;;;38.40;15.88;;;;;;;;;;5070208;28;20021;-64
2020/12/01 07:21:06;;;;;;;54.42;18.50;;;;;;;;;;5065155;28;20477;-64
2020/12/01 07:23:46;;;;;;;49.17;19.23;;;;;;;;;;5067323;28;20052;-65
2020/12/01 07:26:18;;;;;;;51.33;18.83;;;;;;;;;;5072392;28;20013;-64
2020/12/01 07:28:47;;;;;;;50.50;20.08;;;;;;;;;;5065227;28;20032;-64
2020/12/01 07:31:20;;;;;;;50.83;20.08;;;;;;;;;;5072043;28;20093;-64
2020/12/01 07:34:06;;;;;;;57.72;21.30;;;;;;;;;;5068533;28;20108;-65
2020/12/01 07:36:42;;;;;;;58.85;21.23;;;;;;;;;;5070297;28;20044;-62
2020/12/01 07:39:21;;;;;;;51.92;19.67;;;;;;;;;;5071358;28;20082;-64
2020/12/01 07:41:55;;;;;;;45.83;19.33;;;;;;;;;;5069388;28;20070;-64
2020/12/01 07:44:22;;;;;;;46.83;19.50;;;;;;;;;;5074999;28;20043;-64
2020/12/01 07:46:59;;;;;;;43.55;17.00;;;;;;;;;;5072291;28;20026;-62
2020/12/01 07:49:26;;;;;;;38.65;18.63;;;;;;;;;;5069327;28;20493;-65
2020/12/01 07:52:00;;;;;;;50.67;19.25;;;;;;;;;;5072710;28;20032;-65
2020/12/01 07:54:25;;;;;;;44.35;17.98;;;;;;;;;;5074054;28;20452;-65
2020/12/01 07:56:51;;;;;;;49.88;19.55;;;;;;;;;;5071483;28;20056;-64
2020/12/01 07:59:16;;;;;;;56.58;20.73;;;;;;;;;;5066839;28;20063;-64
2020/12/01 08:01:42;;;;;;;48.30;21.13;;;;;;;;;;5071932;28;20017;-65
2020/12/01 08:04:07;;;;;;;58.50;22.88;;;;;;;;;;5072711;28;20431;-64
2020/12/01 08:06:32;;;;;;;45.70;18.98;;;;;;;;;;5071511;28;20099;-64
2020/12/01 08:08:58;;;;;;;52.65;20.42;;;;;;;;;;5068990;28;20021;-64
2020/12/01 08:11:23;;;;;;;46.05;20.67;;;;;;;;;;5072568;28;20028;-65
2020/12/01 08:13:52;;;;;;;56.25;20.92;;;;;;;;;;5072443;28;20021;-63
2020/12/01 08:16:22;;;;;;;56.87;20.23;;;;;;;;;;5072449;28;20445;-65
2020/12/01 08:18:51;;;;;;;58.65;22.13;;;;;;;;;;5072096;28;20286;-65
2020/12/01 08:21:25;;;;;;;54.90;21.38;;;;;;;;;;5066601;28;20013;-65
2020/12/01 08:23:52;;;;;;;61.45;23.27;;;;;;;;;;5072559;28;20150;-65
2020/12/01 08:26:19;;;;;;;60.47;23.70;;;;;;;;;;5073268;28;20111;-64
2020/12/01 08:28:46;;;;;;;62.58;22.75;;;;;;;;;;5073112;28;20016;-65
2020/12/01 08:31:30;;;;;;;52.33;22.05;;;;;;;;;;5073113;28;20107;-64
2020/12/01 08:34:12;;;;;;;49.22;20.70;;;;;;;;;;5073402;28;20437;-65
2020/12/01 08:36:43;;;;;;;56.85;21.08;;;;;;;;;;5071615;28;20052;-64
2020/12/01 08:39:14;;;;;;;46.10;21.88;;;;;;;;;;5072483;28;20024;-64
2020/12/01 08:41:49;;;;;;;47.17;20.08;;;;;;;;;;5072728;28;20505;-64
2020/12/01 08:44:19;;;;;;;47.47;20.90;;;;;;;;;;5073222;28;20438;-64
2020/12/01 08:46:47;;;;;;;71.22;24.17;;;;;;;;;;5073092;28;20017;-63
2020/12/01 08:49:24;;;;;;;67.65;22.27;;;;;;;;;;5072098;28;20035;-63
2020/12/01 08:51:52;;;;;;;60.55;20.67;;;;;;;;;;5071783;28;20036;-63
2020/12/01 08:54:19;;;;;;;52.40;21.65;;;;;;;;;;5058785;28;20040;-64
2020/12/01 08:56:44;;;;;;;59.33;17.73;;;;;;;;;;5051772;28;20025;-65
2020/12/01 08:59:10;;;;;;;73.72;21.05;;;;;;;;;;5052344;28;20028;-63
2020/12/01 09:01:40;;;;;;;68.80;23.55;;;;;;;;;;5052481;28;20259;-64
2020/12/01 09:04:05;;;;;;;41.33;15.70;;;;;;;;;;5052747;28;20409;-64
2020/12/01 09:06:35;;;;;;;55.83;20.83;;;;;;;;;;5055180;28;20040;-63
2020/12/01 09:09:05;;;;;;;76.22;26.38;;;;;;;;;;5071052;28;20389;-64
2020/12/01 09:21:53;;;;;;;59.78;16.40;;;;;;;;;;5067091;28;20074;-64
2020/12/01 09:24:22;;;;;;;60.58;17.50;;;;;;;;;;5072651;28;20066;-64
2020/12/01 09:26:57;;;;;;;83.00;24.67;;;;;;;;;;5070963;28;20381;-64
2020/12/01 09:29:22;;;;;;;89.95;25.85;;;;;;;;;;5071399;28;20036;-63
2020/12/01 09:31:47;;;;;;;85.97;25.83;;;;;;;;;;5071557;28;20025;-63
2020/12/01 09:34:12;;;;;;;72.47;23.40;;;;;;;;;;5072274;28;20759;-64
2020/12/01 09:36:37;;;;;;;102.93;25.90;;;;;;;;;;5072132;28;20289;-63
2020/12/01 09:39:03;;;;;;;87.10;25.67;;;;;;;;;;5071823;28;20548;-63
2020/12/01 09:41:28;;;;;;;83.03;24.58;;;;;;;;;;5069830;28;20017;-64
2020/12/01 09:46:30;;;;;;;75.32;18.63;;;;;;;;;;5071949;28;20028;-64
2020/12/01 09:48:55;;;;;;;72.90;21.30;;;;;;;;;;5071757;28;20414;-65
2020/12/01 09:51:21;;;;;;;75.43;16.50;;;;;;;;;;5071256;28;20121;-65
2020/12/01 09:54:16;;;;;;;64.50;21.08;;;;;;;;;;5071557;28;20020;-62
2020/12/01 09:56:55;;;;;;;82.82;22.25;;;;;;;;;;5070598;28;20033;-64
2020/12/01 09:59:40;;;;;;;71.78;18.48;;;;;;;;;;5051078;28;20021;-62
2020/12/01 10:05:19;;;;;;;76.47;22.75;;;;;;;;;;5051975;28;20114;-63
2020/12/01 10:10:37;;;;;;;90.05;25.80;;;;;;;;;;5050947;28;20104;-63
2020/12/01 10:26:29;;;;;;;84.53;24.50;;;;;;;;;;5070338;28;20538;-64
2020/12/01 10:32:17;;;;;;;83.63;21.55;;;;;;;;;;5053563;28;20398;-63
2020/12/01 10:35:19;;;;;;;124.65;32.28;;;;;;;;;;5047852;28;20064;-63
2020/12/01 10:37:08;;;;;;;112.00;28.13;;;;;;;;;;5060116;28;20434;-64
2020/12/01 10:39:33;;;;;;;72.45;20.42;;;;;;;;;;5069850;28;20029;-64
2020/12/01 10:41:58;;;;;;;88.20;26.47;;;;;;;;;;5069868;28;20047;-64
2020/12/01 10:44:23;;;;;;;101.30;26.30;;;;;;;;;;5070664;28;20274;-64
2020/12/01 10:46:49;;;;;;;96.78;25.77;;;;;;;;;;5068828;28;20059;-65
2020/12/01 10:49:15;;;;;;;110.25;28.52;;;;;;;;;;5070576;28;20025;-65
2020/12/01 10:51:40;;;;;;;89.95;23.75;;;;;;;;;;5069792;28;20500;-64
2020/12/01 10:54:05;;;;;;;104.03;24.95;;;;;;;;;;5070516;28;20473;-64
2020/12/01 10:56:31;;;;;;;80.18;23.40;;;;;;;;;;5068806;28;20025;-64
2020/12/01 10:58:56;;;;;;;82.83;23.80;;;;;;;;;;5069895;28;20024;-64
2020/12/01 11:01:21;;;;;;;78.88;26.70;;;;;;;;;;5068706;28;20790;-64
2020/12/01 11:03:46;;;;;;;90.67;26.27;;;;;;;;;;5057047;28;20021;-65
2020/12/01 11:06:11;;;;;;;111.18;29.33;;;;;;;;;;5061219;28;20630;-64
2020/12/01 11:08:36;;;;;;;88.15;29.02;;;;;;;;;;5069660;28;20489;-64
2020/12/01 11:11:02;;;;;;;99.37;28.97;;;;;;;;;;5069512;28;20056;-63
2020/12/01 11:13:27;;;;;;;71.07;23.40;;;;;;;;;;5069593;28;20328;-64
2020/12/01 11:15:53;;;;;;;92.03;28.13;;;;;;;;;;5068715;28;20020;-64
2020/12/01 11:18:18;;;;;;;101.20;28.58;;;;;;;;;;5069168;28;20067;-64
2020/12/01 11:20:43;;;;;;;80.82;28.05;;;;;;;;;;5069314;28;20009;-66
2020/12/01 11:23:08;;;;;;;90.78;28.52;;;;;;;;;;5069739;28;20012;-65
2020/12/01 11:25:34;;;;;;;90.72;26.67;;;;;;;;;;5069549;28;20021;-65
2020/12/01 11:27:59;;;;;;;73.90;24.67;;;;;;;;;;5068684;28;20365;-64
2020/12/01 11:30:24;;;;;;;79.47;26.13;;;;;;;;;;5069616;28;20266;-65
2020/12/01 11:32:49;;;;;;;76.38;25.60;;;;;;;;;;5068102;28;20021;-64
2020/12/01 11:35:15;;;;;;;72.90;26.58;;;;;;;;;;5065587;28;20031;-65
2020/12/01 11:37:40;;;;;;;72.50;24.00;;;;;;;;;;5068949;28;20039;-65
2020/12/01 11:40:07;;;;;;;81.30;26.67;;;;;;;;;;5069777;28;20027;-65
2020/12/01 11:42:32;;;;;;;68.82;24.65;;;;;;;;;;5069525;28;20491;-64
2020/12/01 11:44:57;;;;;;;57.53;21.48;;;;;;;;;;5069249;28;20099;-65
2020/12/01 11:47:22;;;;;;;55.15;16.88;;;;;;;;;;5069025;28;20021;-65
2020/12/01 11:49:48;;;;;;;63.13;21.88;;;;;;;;;;5066680;28;20653;-65
2020/12/01 11:52:13;;;;;;;62.05;23.95;;;;;;;;;;5064629;28;20105;-65
2020/12/01 11:54:38;;;;;;;60.00;20.17;;;;;;;;;;5069501;28;20112;-65
2020/12/01 11:57:03;;;;;;;58.90;22.47;;;;;;;;;;5066919;28;20267;-64
2020/12/01 11:59:29;;;;;;;53.00;18.05;;;;;;;;;;5068524;28;20326;-65
2020/12/01 12:01:54;;;;;;;53.63;20.08;;;;;;;;;;5069401;28;20074;-66
2020/12/01 12:04:19;;;;;;;62.77;20.63;;;;;;;;;;5065490;28;20481;-64
2020/12/01 12:06:44;;;;;;;58.65;18.70;;;;;;;;;;5066733;28;20270;-65
2020/12/01 12:09:10;;;;;;;66.03;20.37;;;;;;;;;;5068751;28;20042;-64
2020/12/01 12:11:35;;;;;;;42.95;17.88;;;;;;;;;;5069524;28;20278;-65
2020/12/01 12:14:01;;;;;;;45.33;16.75;;;;;;;;;;5069485;28;20016;-66
2020/12/01 12:16:26;;;;;;;42.22;16.88;;;;;;;;;;5068581;28;20016;-65
2020/12/01 12:18:52;;;;;;;59.25;21.55;;;;;;;;;;5068390;28;20039;-65
2020/12/01 12:21:20;;;;;;;59.50;21.08;;;;;;;;;;5068857;28;20099;-64
2020/12/01 12:23:46;;;;;;;55.55;20.13;;;;;;;;;;5069332;28;20388;-64
2020/12/01 12:26:11;;;;;;;27.60;9.40;;;;;;;;;;5069339;28;20079;-64
2020/12/01 12:28:36;;;;;;;30.60;12.43;;;;;;;;;;5068544;28;20111;-65
2020/12/01 12:31:02;;;;;;;43.53;17.92;;;;;;;;;;5068600;28;20465;-65
2020/12/01 12:33:28;;;;;;;45.25;19.33;;;;;;;;;;5071747;28;20012;-66
2020/12/01 12:35:54;;;;;;;62.33;21.98;;;;;;;;;;5071618;28;20020;-65
2020/12/01 12:38:19;;;;;;;61.55;23.17;;;;;;;;;;5071874;28;20028;-65
2020/12/01 12:40:47;;;;;;;49.40;18.25;;;;;;;;;;5071789;28;20028;-66
2020/12/01 12:43:12;;;;;;;29.70;11.15;;;;;;;;;;5072720;28;20020;-65
2020/12/01 12:45:38;;;;;;;16.48;7.10;;;;;;;;;;5072099;28;20763;-65
2020/12/01 12:48:03;;;;;;;13.33;5.90;;;;;;;;;;5070566;28;20020;-64
2020/12/01 12:50:28;;;;;;;31.30;12.40;;;;;;;;;;5066937;28;20338;-64
2020/12/01 12:52:53;;;;;;;37.75;14.70;;;;;;;;;;5071867;28;20035;-66
2020/12/01 12:55:18;;;;;;;39.60;15.33;;;;;;;;;;5071738;28;20041;-65
2020/12/01 12:57:43;;;;;;;44.77;18.03;;;;;;;;;;5071626;28;20377;-65
2020/12/01 13:00:09;;;;;;;47.08;18.17;;;;;;;;;;5072082;28;20271;-64
2020/12/01 13:02:34;;;;;;;34.33;13.63;;;;;;;;;;5071492;28;20016;-66
2020/12/01 13:04:59;;;;;;;47.77;18.77;;;;;;;;;;5071557;28;20692;-64
2020/12/01 13:07:24;;;;;;;52.17;18.92;;;;;;;;;;5071446;28;20266;-66
2020/12/01 13:09:49;;;;;;;38.17;15.13;;;;;;;;;;5072379;28;20388;-64
2020/12/01 13:12:14;;;;;;;28.45;11.55;;;;;;;;;;5072207;28;20107;-64
2020/12/01 13:14:40;;;;;;;45.90;16.90;;;;;;;;;;5071875;28;20086;-65
2020/12/01 13:17:05;;;;;;;37.22;15.07;;;;;;;;;;5070820;28;20103;-65
2020/12/01 13:19:30;;;;;;;47.80;14.85;;;;;;;;;;5071302;28;20095;-65
2020/12/01 13:21:55;;;;;;;41.60;15.73;;;;;;;;;;5071792;28;20024;-64
2020/12/01 13:24:20;;;;;;;22.37;10.33;;;;;;;;;;5071619;28;20028;-65
2020/12/01 13:26:46;;;;;;;18.15;7.85;;;;;;;;;;5071228;28;20639;-66
2020/12/01 13:29:11;;;;;;;45.53;16.30;;;;;;;;;;5071090;28;20446;-64
2020/12/01 13:31:36;;;;;;;29.30;10.47;;;;;;;;;;5071688;28;20102;-65
2020/12/01 13:34:01;;;;;;;31.92;14.60;;;;;;;;;;5071399;28;20267;-64
2020/12/01 13:36:28;;;;;;;40.95;16.58;;;;;;;;;;5071099;28;20096;-66
2020/12/01 13:38:53;;;;;;;43.45;14.85;;;;;;;;;;5071015;28;20024;-65
2020/12/01 13:41:19;;;;;;;42.83;14.63;;;;;;;;;;5070920;28;20112;-67
2020/12/01 13:43:44;;;;;;;31.52;11.90;;;;;;;;;;5070934;28;20017;-66
2020/12/01 13:46:10;;;;;;;34.80;15.27;;;;;;;;;;5070898;28;20021;-66
2020/12/01 13:48:35;;;;;;;30.85;14.38;;;;;;;;;;5070627;28;20020;-65
2020/12/01 13:51:00;;;;;;;29.88;11.70;;;;;;;;;;5070252;28;20032;-65
2020/12/01 13:53:26;;;;;;;37.47;13.85;;;;;;;;;;5070580;28;20016;-66
2020/12/01 13:55:52;;;;;;;34.83;11.02;;;;;;;;;;5070764;28;20017;-65
2020/12/01 13:58:17;;;;;;;33.72;12.25;;;;;;;;;;5070619;28;20029;-67
2020/12/01 14:00:44;;;;;;;26.38;11.52;;;;;;;;;;5070444;28;20021;-67
2020/12/01 14:03:09;;;;;;;14.18;6.22;;;;;;;;;;5069296;28;20473;-66
2020/12/01 14:05:34;;;;;;;38.83;14.83;;;;;;;;;;5070493;28;20024;-65
2020/12/01 14:08:01;;;;;;;32.90;12.30;;;;;;;;;;5070058;28;20323;-66
2020/12/01 14:10:26;;;;;;;32.30;14.07;;;;;;;;;;5070407;28;20346;-66
2020/12/01 14:12:52;;;;;;;41.55;14.32;;;;;;;;;;5070848;28;20631;-67
2020/12/01 14:15:17;;;;;;;35.60;15.27;;;;;;;;;;5068893;28;20452;-65
2020/12/01 14:17:43;;;;;;;35.22;12.23;;;;;;;;;;5069932;28;20098;-63
2020/12/01 14:20:10;;;;;;;23.52;8.45;;;;;;;;;;5070376;28;20458;-64
2020/12/01 14:22:35;;;;;;;28.90;12.48;;;;;;;;;;5069746;28;20017;-66
2020/12/01 14:25:00;;;;;;;24.33;9.57;;;;;;;;;;5070078;28;20027;-64
2020/12/01 14:27:25;;;;;;;41.55;15.75;;;;;;;;;;5070080;28;20025;-66
2020/12/01 14:29:51;;;;;;;36.03;15.70;;;;;;;;;;5069559;28;20024;-65
2020/12/01 14:32:16;;;;;;;38.13;16.17;;;;;;;;;;5069764;28;20535;-66
2020/12/01 14:34:41;;;;;;;39.40;16.40;;;;;;;;;;5070115;28;20059;-66
2020/12/01 14:37:07;;;;;;;30.60;11.60;;;;;;;;;;5067356;28;20028;-67
2020/12/01 14:39:34;;;;;;;36.50;15.35;;;;;;;;;;5069102;28;20072;-66
2020/12/01 14:42:00;;;;;;;41.35;15.68;;;;;;;;;;5070223;28;20029;-66
2020/12/01 14:44:26;;;;;;;34.90;15.77;;;;;;;;;;5069782;28;20016;-66
2020/12/01 14:46:51;;;;;;;34.28;15.70;;;;;;;;;;5070030;28;20391;-66
2020/12/01 14:49:20;;;;;;;42.40;16.33;;;;;;;;;;5069343;28;20065;-65
2020/12/01 14:52:04;;;;;;;37.83;14.57;;;;;;;;;;5069116;28;20059;-65
2020/12/01 14:54:29;;;;;;;33.85;14.95;;;;;;;;;;5069214;28;20020;-66
2020/12/01 14:57:04;;;;;;;35.00;12.40;;;;;;;;;;5069930;28;20017;-63